ADDS METAR Data INFO
IDs: Format: Raw Decoded Include TAF

Data at: 0330 UTC 16 Dec 2017

KEEN 160256Z AUTO 00000KT 10SM BKN034 OVC100 M08/M09 A2983 RMK AO2 SLP123 T10831094 58003 FZRANO
KEEN 160156Z AUTO 00000KT 10SM OVC095 M08/M10 A2983 RMK AO2 SLP124 T10831100 FZRANO
KEEN 160056Z AUTO 00000KT 10SM FEW075 OVC090 M08/M10 A2985 RMK AO2 SLP129 T10781100 FZRANO
KEEN 152356Z AUTO 21003KT 10SM OVC085 M07/M09 A2984 RMK AO2 SLP128 60000 T10721094 11044 21072 56023 FZRANO
KEEN 152256Z AUTO 00000KT 10SM FEW060 OVC100 M07/M11 A2985 RMK AO2 SLP130 T10721106 FZRANO
KEEN 152156Z AUTO 00000KT 10SM OVC065 M07/M10 A2988 RMK AO2 SNB05E18 SLP140 P0000 T10671100 FZRANO
KEEN 152056Z AUTO 00000KT 10SM OVC090 M06/M10 A2991 RMK AO2 SLP152 T10611100 56021 FZRANO
KEEN 151956Z AUTO 00000KT 10SM OVC100 M05/M09 A2994 RMK AO2 SLP159 T10501089 FZRANO
KEEN 151856Z AUTO 00000KT 10SM BKN120 M04/M07 A2995 RMK AO2 SLP164 T10441072 FZRANO
KEEN 151756Z AUTO 00000KT 10SM CLR M06/M08 A2998 RMK AO2 SLP172 T10561083 11050 21194 58035 FZRANO
KEEN 151656Z AUTO 00000KT 10SM CLR M07/M09 A3001 RMK AO2 SLP183 T10671094 FZRANO
KEEN 151556Z AUTO 01004KT 10SM CLR M11/M13 A3005 RMK AO2 SLP197 T11061133 FZRANO
KEEN 151456Z AUTO 00000KT 9SM CLR M11/M13 A3008 RMK AO2 SLP207 T11061133 50009 FZRANO
KEEN 151356Z AUTO 00000KT 9SM CLR M16/M17 A3008 RMK AO2 SLP209 T11561172 FZRANO
KEEN 151256Z AUTO 00000KT 10SM CLR M19/M21 A3007 RMK AO2 SLP202 T11891206 FZRANO
KEEN 151156Z AUTO 19003KT 10SM CLR M19/M21 A3005 RMK AO2 SLP199 T11941211 11172 21194 53007 FZRANO
KEEN 151056Z AUTO 00000KT 10SM CLR M19/M22 A3004 RMK AO2 SLP195 T11941217 FZRANO
KEEN 150956Z AUTO 00000KT 10SM CLR M19/M20 A3004 RMK AO2 SLP193 T11891200 FZRANO
KEEN 150856Z AUTO 00000KT 10SM CLR M19/M21 A3003 RMK AO2 SLP192 T11891211 51017 FZRANO
KEEN 150756Z AUTO 00000KT 10SM CLR M18/M21 A3003 RMK AO2 SLP190 T11831206 FZRANO
KEEN 150656Z AUTO 19003KT 10SM CLR M17/M19 A3001 RMK AO2 SLP183 T11721189 FZRANO
KEEN 150556Z AUTO 00000KT 10SM CLR M17/M19 A2998 RMK AO2 SLP174 T11721194 11106 21172 51010 FZRANO
KEEN 150456Z AUTO 15003KT 10SM CLR M16/M17 A2998 RMK AO2 SLP173 T11611172 410331172 FZRANO
KEEN 150356Z AUTO 00000KT 10SM CLR M16/M18 A2997 RMK AO2 SLP170 T11611178 FZRANO
KEEN 150256Z AUTO 19003KT 10SM CLR M16/M17 A2995 RMK AO2 SLP164 T11561167 51025 FZRANO
KEEN 150156Z AUTO VRB05KT 10SM CLR M14/M16 A2993 RMK AO2 SLP155 T11391161 FZRANO
KEEN 150056Z AUTO VRB05KT 10SM CLR M12/M17 A2991 RMK AO2 SLP149 T11221167 FZRANO
KEEN 142356Z AUTO 23004KT 10SM CLR M11/M17 A2988 RMK AO2 SLP138 T11061167 11033 21106 51040 FZRANO
KEEN 142256Z AUTO 20009KT 10SM CLR M09/M17 A2985 RMK AO2 SLP130 T10941167 FZRANO
KEEN 142156Z AUTO 24007KT 10SM CLR M08/M16 A2981 RMK AO2 SLP116 T10781156 FZRANO
KEEN 142056Z AUTO 28008KT 10SM CLR M05/M16 A2976 RMK AO2 SLP097 T10501161 53034 FZRANO
KEEN 141956Z AUTO VRB06G15KT 10SM CLR M04/M16 A2972 RMK AO2 SLP083 T10391156 FZRANO
KEEN 141856Z AUTO 28011G19KT 10SM CLR M04/M14 A2969 RMK AO2 SLP073 T10391144 FZRANO
KEEN 141756Z AUTO 33009G16KT 10SM CLR M03/M14 A2966 RMK AO2 SLP062 T10331144 11033 21094 53012 FZRANO
KEEN 141656Z AUTO 31009G17KT 280V340 10SM FEW110 M04/M15 A2965 RMK AO2 SLP058 T10441150 FZRANO
KEEN 141556Z AUTO VRB04KT 10SM OVC100 M04/M13 A2963 RMK AO2 SLP053 T10441128 FZRANO